createdAt,value
2022-10-11T00:01:09.144Z,13.10
2022-10-11T00:03:39.059Z,13.23
2022-10-11T00:06:09.341Z,13.07
2022-10-11T00:08:38.097Z,11.45
2022-10-11T00:11:09.251Z,13.73
2022-10-11T00:13:38.136Z,13.57
2022-10-11T00:16:11.865Z,11.55
2022-10-11T00:18:46.390Z,12.13
2022-10-11T00:21:29.071Z,12.90
2022-10-11T00:24:13.679Z,13.98
2022-10-11T00:26:54.537Z,13.00
2022-10-11T00:29:36.203Z,12.30
2022-10-11T00:32:18.456Z,13.23
2022-10-11T00:35:04.755Z,11.82
2022-10-11T00:37:46.728Z,11.88
2022-10-11T00:40:29.186Z,15.13
2022-10-11T00:43:18.295Z,11.95
2022-10-11T00:46:31.162Z,11.77
2022-10-11T00:49:22.654Z,14.80
2022-10-11T00:52:12.728Z,15.45
2022-10-11T00:54:54.967Z,13.50
2022-10-11T00:57:42.987Z,13.30
2022-10-11T01:00:24.670Z,13.15
2022-10-11T01:03:07.783Z,13.32
2022-10-11T01:05:50.537Z,15.55
2022-10-11T01:08:33.606Z,13.07
2022-10-11T01:11:20.244Z,14.15
2022-10-11T01:14:24.432Z,14.88
2022-10-11T01:17:24.553Z,13.63
2022-10-11T01:20:38.600Z,15.73
2022-10-11T01:24:08.690Z,15.10
2022-10-11T01:27:29.730Z,12.45
2022-10-11T01:30:26.855Z,16.75
2022-10-11T01:33:23.630Z,13.82
2022-10-11T01:36:13.419Z,15.00
2022-10-11T01:39:00.025Z,14.38
2022-10-11T01:41:47.241Z,12.52
2022-10-11T01:44:29.894Z,16.35
2022-10-11T01:47:11.585Z,12.30
2022-10-11T01:49:58.363Z,14.38
2022-10-11T01:52:46.330Z,14.80
2022-10-11T01:55:45.356Z,14.15
2022-10-11T01:58:43.167Z,12.50
2022-10-11T02:01:38.694Z,11.57
2022-10-11T02:04:42.080Z,16.80
2022-10-11T02:07:32.514Z,11.23
2022-10-11T02:10:25.669Z,15.80
2022-10-11T02:13:16.034Z,14.77
2022-10-11T02:16:04.102Z,16.42
2022-10-11T02:18:51.090Z,15.75
2022-10-11T02:21:37.210Z,10.88
2022-10-11T02:24:27.260Z,13.75
2022-10-11T02:27:12.453Z,13.50
2022-10-11T02:29:57.371Z,16.25
2022-10-11T02:32:43.055Z,12.00
2022-10-11T02:35:29.828Z,14.40
2022-10-11T02:38:20.927Z,15.55
2022-10-11T02:41:12.919Z,14.48
2022-10-11T02:44:01.850Z,13.25
2022-10-11T02:46:46.292Z,13.80
2022-10-11T02:49:28.302Z,12.70
2022-10-11T02:52:10.775Z,14.07
2022-10-11T02:54:51.538Z,14.27
2022-10-11T02:57:32.398Z,14.88
2022-10-11T03:00:16.581Z,13.80
2022-10-11T03:02:58.865Z,14.88
2022-10-11T03:05:41.793Z,11.80
2022-10-11T03:08:24.489Z,11.95
2022-10-11T03:11:07.004Z,13.65
2022-10-11T03:13:47.767Z,13.10
2022-10-11T03:16:29.316Z,15.20
2022-10-11T03:19:14.645Z,13.93
2022-10-11T03:21:59.485Z,14.90
2022-10-11T03:24:40.898Z,12.75
2022-10-11T03:27:23.318Z,12.85
2022-10-11T03:30:05.680Z,11.55
2022-10-11T03:32:47.494Z,13.93
2022-10-11T03:35:28.811Z,17.50
2022-10-11T03:38:13.102Z,13.95
2022-10-11T03:41:07.252Z,13.50
2022-10-11T03:43:47.354Z,13.95
2022-10-11T03:46:29.368Z,13.98
2022-10-11T03:49:10.222Z,12.35
2022-10-11T03:51:51.561Z,16.58
2022-10-11T03:54:33.726Z,12.98
2022-10-11T03:57:15.005Z,17.88
2022-10-11T03:59:56.766Z,13.63
2022-10-11T04:02:39.325Z,12.90
2022-10-11T04:05:20.715Z,14.13
2022-10-11T04:08:01.603Z,13.18
2022-10-11T04:10:44.308Z,13.05
2022-10-11T04:13:25.105Z,12.52
2022-10-11T04:16:08.730Z,14.60
2022-10-11T04:18:50.942Z,13.52
2022-10-11T04:21:31.926Z,13.02
2022-10-11T04:24:14.346Z,14.95
2022-10-11T04:26:55.190Z,12.73
2022-10-11T04:29:37.701Z,12.20
2022-10-11T04:32:19.082Z,12.15
2022-10-11T04:35:01.846Z,12.88
2022-10-11T04:37:44.517Z,13.60
2022-10-11T04:40:25.411Z,14.00
2022-10-11T04:43:06.997Z,13.30
2022-10-11T04:45:52.332Z,15.07
2022-10-11T04:48:36.743Z,12.63
2022-10-11T04:51:17.632Z,13.27
2022-10-11T04:53:59.001Z,12.05
2022-10-11T04:56:41.495Z,12.48
2022-10-11T04:59:22.905Z,13.32
2022-10-11T05:02:04.038Z,14.20
2022-10-11T05:04:45.570Z,15.35
2022-10-11T05:07:27.046Z,17.20
2022-10-11T05:10:10.466Z,17.42
2022-10-11T05:12:51.387Z,17.27
2022-10-11T05:15:33.554Z,17.90
2022-10-11T05:18:14.263Z,14.90
2022-10-11T05:21:03.229Z,16.48
2022-10-11T05:23:43.505Z,14.50
2022-10-11T05:26:28.140Z,14.48
2022-10-11T05:29:09.459Z,14.85
2022-10-11T05:31:50.847Z,16.60
2022-10-11T05:34:32.319Z,15.32
2022-10-11T05:37:14.304Z,16.27
2022-10-11T05:39:55.117Z,18.00
2022-10-11T05:42:36.509Z,19.08
2022-10-11T05:45:18.143Z,17.90
2022-10-11T05:48:00.086Z,16.90
2022-10-11T05:50:41.233Z,19.70
2022-10-11T05:53:22.121Z,17.85
2022-10-11T05:56:03.911Z,24.40
2022-10-11T05:58:45.575Z,20.35
2022-10-11T06:01:28.790Z,19.98
2022-10-11T06:04:09.920Z,21.25
2022-10-11T06:06:50.781Z,16.65
2022-10-11T06:09:34.845Z,19.60
2022-10-11T06:12:16.329Z,19.50
2022-10-11T06:15:12.541Z,17.77
2022-10-11T06:18:12.110Z,23.23
2022-10-11T06:21:26.166Z,17.98
2022-10-11T06:24:23.974Z,20.35
2022-10-11T06:27:05.311Z,20.38
2022-10-11T06:30:14.188Z,23.70
2022-10-11T06:33:15.911Z,20.10
2022-10-11T06:36:15.686Z,21.52
2022-10-11T06:39:14.006Z,19.52
2022-10-11T06:42:13.084Z,21.38
2022-10-11T06:45:18.269Z,24.85
2022-10-11T06:48:31.502Z,24.10
2022-10-11T06:51:28.661Z,20.80
2022-10-11T06:54:28.431Z,22.50
2022-10-11T06:57:29.145Z,20.27
2022-10-11T07:00:28.613Z,21.67
2022-10-11T07:03:36.374Z,19.38
2022-10-11T07:06:32.231Z,22.20
2022-10-11T07:09:27.123Z,18.45
2022-10-11T07:12:28.934Z,19.25
2022-10-11T07:15:11.195Z,21.10
2022-10-11T07:18:09.326Z,20.48
2022-10-11T07:21:16.468Z,22.35
2022-10-11T07:24:31.487Z,23.63
2022-10-11T07:27:41.720Z,22.08
2022-10-11T07:30:40.261Z,20.75
2022-10-11T07:33:37.850Z,23.38
2022-10-11T07:36:37.135Z,22.67
2022-10-11T07:39:44.229Z,19.45
2022-10-11T07:42:40.068Z,21.98
2022-10-11T07:45:41.603Z,23.90
2022-10-11T07:48:42.451Z,23.30
2022-10-11T07:51:40.706Z,18.27
2022-10-11T07:54:42.324Z,23.38
2022-10-11T07:57:41.095Z,20.70
2022-10-11T08:00:42.826Z,22.70
2022-10-11T08:03:48.044Z,20.85
2022-10-11T08:06:53.411Z,20.20
2022-10-11T08:09:58.358Z,18.60
2022-10-11T08:13:01.994Z,16.73
2022-10-11T08:15:59.953Z,20.25
2022-10-11T08:18:57.348Z,21.15
2022-10-11T08:21:56.269Z,20.10
2022-10-11T08:24:55.232Z,17.27
2022-10-11T08:27:53.656Z,20.80
2022-10-11T08:31:05.401Z,18.27
2022-10-11T08:34:05.611Z,17.70
2022-10-11T08:37:05.665Z,17.83
2022-10-11T08:40:03.357Z,18.92
2022-10-11T08:42:48.405Z,16.38
2022-10-11T08:45:50.201Z,17.80
2022-10-11T08:48:50.230Z,15.80
2022-10-11T08:52:00.154Z,16.85
2022-10-11T08:55:02.496Z,13.98
2022-10-11T08:57:59.521Z,16.15
2022-10-11T09:00:58.662Z,15.38
2022-10-11T09:03:45.037Z,15.27
2022-10-11T09:06:46.585Z,15.52
2022-10-11T09:09:52.098Z,12.13
2022-10-11T09:12:50.436Z,14.20
2022-10-11T09:15:44.214Z,12.23
2022-10-11T09:18:57.012Z,17.73
2022-10-11T09:21:52.849Z,13.57
2022-10-11T09:24:53.544Z,14.20
2022-10-11T09:27:57.389Z,10.63
2022-10-11T09:30:21.878Z,14.10
2022-10-11T09:33:04.516Z,8.50
2022-10-11T09:35:40.899Z,10.98
2022-10-11T09:38:23.124Z,12.98
2022-10-11T09:41:10.676Z,12.10
2022-10-11T09:43:40.073Z,9.40
2022-10-11T09:46:23.893Z,11.20
2022-10-11T09:48:55.766Z,9.75
2022-10-11T09:51:28.487Z,13.20
2022-10-11T09:54:00.820Z,7.15
2022-10-11T09:56:34.181Z,8.00
2022-10-11T09:59:24.972Z,6.50
2022-10-11T10:02:24.248Z,10.80
2022-10-11T10:04:59.250Z,9.10
2022-10-11T10:07:29.463Z,8.88
2022-10-11T10:09:58.572Z,8.85
2022-10-11T10:12:31.567Z,13.10
2022-10-11T10:15:09.485Z,10.30
2022-10-11T10:17:38.134Z,9.63
2022-10-11T10:20:20.514Z,10.43
2022-10-11T10:22:49.568Z,9.48
2022-10-11T10:25:31.930Z,7.97
2022-10-11T10:28:04.956Z,7.45
2022-10-11T10:30:35.690Z,7.72
2022-10-11T10:33:08.818Z,7.40
2022-10-11T10:35:44.654Z,5.82
2022-10-11T10:38:26.407Z,8.88
2022-10-11T10:40:59.112Z,5.80
2022-10-11T10:43:34.187Z,4.13
2022-10-11T10:46:26.683Z,8.38
2022-10-11T10:52:15.880Z,6.00
2022-10-11T10:54:57.522Z,6.25
2022-10-11T10:57:35.084Z,5.47
2022-10-11T11:00:15.157Z,5.20
2022-10-11T11:02:55.341Z,4.70
2022-10-11T11:05:40.046Z,3.35
2022-10-11T11:08:17.078Z,4.10
2022-10-11T11:10:56.848Z,4.63
2022-10-11T11:13:41.828Z,7.25
2022-10-11T11:16:24.487Z,4.28
2022-10-11T11:19:03.391Z,4.15
2022-10-11T11:21:45.783Z,4.93
2022-10-11T11:24:32.197Z,3.95
2022-10-11T11:27:11.174Z,4.75
2022-10-11T11:29:55.698Z,4.05
2022-10-11T11:32:45.541Z,5.80
2022-10-11T11:35:28.713Z,5.30
2022-10-11T11:38:06.604Z,7.70
2022-10-11T11:40:42.754Z,3.85
2022-10-11T11:43:22.224Z,4.45
2022-10-11T11:45:56.622Z,5.47
2022-10-11T11:48:27.926Z,7.15
2022-10-11T11:51:07.886Z,4.95
2022-10-11T11:53:55.274Z,3.38
2022-10-11T11:56:34.843Z,5.25
2022-10-11T11:59:15.508Z,5.80
2022-10-11T12:01:55.706Z,8.35
2022-10-11T12:04:31.154Z,4.63
2022-10-11T12:07:21.640Z,10.43
2022-10-11T12:09:54.988Z,6.63
2022-10-11T12:12:31.883Z,5.20
2022-10-11T12:15:20.818Z,7.60
2022-10-11T12:18:15.243Z,4.43
2022-10-11T12:20:45.977Z,4.68
2022-10-11T12:23:47.942Z,7.22
2022-10-11T12:26:44.091Z,5.07
2022-10-11T12:29:47.979Z,6.28
2022-10-11T12:32:51.917Z,7.72
2022-10-11T12:36:07.597Z,5.32
2022-10-11T12:38:40.056Z,5.25
2022-10-11T12:41:39.786Z,6.90
2022-10-11T12:44:21.700Z,5.97
2022-10-11T12:47:39.551Z,4.85
2022-10-11T12:50:23.791Z,5.85
2022-10-11T12:53:09.726Z,3.78
2022-10-11T12:55:57.596Z,7.30
2022-10-11T12:58:31.079Z,5.45
2022-10-11T13:01:19.270Z,4.22
2022-10-11T13:03:58.409Z,4.20
2022-10-11T13:06:32.684Z,4.22
2022-10-11T13:09:15.527Z,9.63
2022-10-11T13:11:52.277Z,5.32
2022-10-11T13:14:25.125Z,6.82
2022-10-11T13:17:05.069Z,2.95
2022-10-11T13:22:23.845Z,7.22
2022-10-11T13:24:58.153Z,4.68
2022-10-11T13:27:28.878Z,5.90
2022-10-11T13:30:03.280Z,6.32
2022-10-11T13:32:35.176Z,3.15
2022-10-11T13:35:16.464Z,2.80
2022-10-11T13:37:50.125Z,5.13
2022-10-11T13:40:23.236Z,2.85
2022-10-11T13:42:54.943Z,5.40
2022-10-11T13:45:30.588Z,5.00
2022-10-11T13:47:59.860Z,6.07
2022-10-11T13:50:33.567Z,6.03
2022-10-11T13:53:04.995Z,4.53
2022-10-11T13:55:48.598Z,8.63
2022-10-11T13:58:29.752Z,4.72
2022-10-11T14:01:02.811Z,6.00
2022-10-11T14:03:41.552Z,6.00
2022-10-11T14:06:10.975Z,5.45
2022-10-11T14:08:46.668Z,5.88
2022-10-11T14:11:32.484Z,7.32
2022-10-11T14:14:01.564Z,9.02
2022-10-11T14:16:32.216Z,5.22
2022-10-11T14:19:11.453Z,5.20
2022-10-11T14:21:52.519Z,10.55
2022-10-11T14:24:22.094Z,5.30
2022-10-11T14:26:55.954Z,4.15
2022-10-11T14:29:28.385Z,5.53
2022-10-11T14:32:03.938Z,8.80
2022-10-11T14:34:33.683Z,9.20
2022-10-11T14:37:02.522Z,5.60
2022-10-11T14:39:33.040Z,5.63
2022-10-11T14:42:02.905Z,5.57
2022-10-11T14:44:31.709Z,10.05
2022-10-11T14:47:01.381Z,8.40
2022-10-11T14:49:34.575Z,6.45
2022-10-11T14:52:06.569Z,7.13
2022-10-11T14:54:36.892Z,6.93
2022-10-11T14:57:07.660Z,5.07
2022-10-11T14:59:38.770Z,6.85
2022-10-11T15:02:09.845Z,6.68
2022-10-11T15:04:38.902Z,7.07
2022-10-11T15:07:07.500Z,4.45
2022-10-11T15:09:36.371Z,6.38
2022-10-11T15:12:07.053Z,8.10
2022-10-11T15:14:35.596Z,6.75
2022-10-11T15:17:04.459Z,8.27
2022-10-11T15:19:33.027Z,5.40
2022-10-11T15:22:02.375Z,9.20
2022-10-11T15:24:31.198Z,9.30
2022-10-11T15:26:59.925Z,7.13
2022-10-11T15:29:29.828Z,6.00
2022-10-11T15:31:58.578Z,7.55
2022-10-11T15:34:27.253Z,7.60
2022-10-11T15:36:55.822Z,9.00
2022-10-11T15:39:30.600Z,8.52
2022-10-11T15:41:59.223Z,6.45
2022-10-11T15:44:29.386Z,5.03
2022-10-11T15:46:57.958Z,6.05
2022-10-11T15:49:26.783Z,5.70
2022-10-11T15:51:55.333Z,6.18
2022-10-11T15:54:23.893Z,8.50
2022-10-11T15:56:52.606Z,9.68
2022-10-11T15:59:21.366Z,5.95
2022-10-11T16:01:51.674Z,8.30
2022-10-11T16:04:20.384Z,7.80
2022-10-11T16:06:48.894Z,8.43
2022-10-11T16:09:17.612Z,9.52
2022-10-11T16:11:46.152Z,8.90
2022-10-11T16:14:14.845Z,8.43
2022-10-11T16:16:43.447Z,8.38
2022-10-11T16:19:13.571Z,7.07
2022-10-11T16:21:42.243Z,7.10
2022-10-11T16:24:10.975Z,7.13
2022-10-11T16:26:39.538Z,9.65
2022-10-11T16:29:08.427Z,8.07
2022-10-11T16:31:37.107Z,7.90
2022-10-11T16:34:05.950Z,6.30
2022-10-11T16:36:42.479Z,6.65
2022-10-11T16:39:15.882Z,7.28
2022-10-11T16:41:45.445Z,10.48
2022-10-11T16:44:16.167Z,7.97
2022-10-11T16:46:48.164Z,11.68
2022-10-11T16:49:18.496Z,11.07
2022-10-11T16:51:49.409Z,8.10
2022-10-11T16:54:20.524Z,10.48
2022-10-11T16:56:50.486Z,9.35
2022-10-11T16:59:20.401Z,9.48
2022-10-11T17:01:49.369Z,9.82
2022-10-11T17:04:18.255Z,11.68
2022-10-11T17:06:48.229Z,9.85
2022-10-11T17:09:17.568Z,8.93
2022-10-11T17:11:46.455Z,10.07
2022-10-11T17:14:15.269Z,7.78
2022-10-11T17:16:44.375Z,10.20
2022-10-11T17:19:15.479Z,12.77
2022-10-11T17:21:44.105Z,10.98
2022-10-11T17:24:14.252Z,11.85
2022-10-11T17:26:42.837Z,11.55
2022-10-11T17:29:16.923Z,16.08
2022-10-11T17:31:49.219Z,14.30
2022-10-11T17:34:19.091Z,14.18
2022-10-11T17:36:48.187Z,13.20
2022-10-11T17:39:21.771Z,17.13
2022-10-11T17:41:52.036Z,15.90
2022-10-11T17:44:21.889Z,14.77
2022-10-11T17:46:51.121Z,16.55
2022-10-11T17:49:20.048Z,15.18
2022-10-11T17:51:48.572Z,17.63
2022-10-11T17:54:18.709Z,16.10
2022-10-11T17:56:47.298Z,18.05
2022-10-11T17:59:22.355Z,17.48
2022-10-11T18:01:51.664Z,20.80
2022-10-11T18:04:22.174Z,25.58
2022-10-11T18:06:50.903Z,26.60
2022-10-11T18:09:21.577Z,28.50
2022-10-11T18:11:50.753Z,24.48
2022-10-11T18:14:19.746Z,27.30
2022-10-11T18:16:48.283Z,26.42
2022-10-11T18:19:17.196Z,24.30
2022-10-11T18:21:46.007Z,29.92
2022-10-11T18:24:17.369Z,25.63
2022-10-11T18:26:48.037Z,22.08
2022-10-11T18:29:16.954Z,18.48
2022-10-11T18:31:46.131Z,18.98
2022-10-11T18:34:15.933Z,18.17
2022-10-11T18:36:45.065Z,16.02
2022-10-11T18:39:15.791Z,23.10
2022-10-11T18:41:45.332Z,18.17
2022-10-11T18:44:17.257Z,21.77
2022-10-11T18:46:47.075Z,20.08
2022-10-11T18:49:16.319Z,21.88
2022-10-11T18:51:47.965Z,25.70
2022-10-11T18:54:20.278Z,22.02
2022-10-11T18:56:50.401Z,25.20
2022-10-11T18:59:21.075Z,23.90
2022-10-11T19:01:52.217Z,21.92
2022-10-11T19:04:22.154Z,22.65
2022-10-11T19:06:52.657Z,24.85
2022-10-11T19:09:26.190Z,25.00
2022-10-11T19:11:57.461Z,24.48
2022-10-11T19:14:30.355Z,26.65
2022-10-11T19:16:59.675Z,24.80
2022-10-11T19:19:30.877Z,27.40
2022-10-11T19:22:00.281Z,28.63
2022-10-11T19:24:31.070Z,27.70
2022-10-11T19:27:02.710Z,28.20
2022-10-11T19:29:34.464Z,27.73
2022-10-11T19:32:04.380Z,29.58
2022-10-11T19:34:33.864Z,30.40
2022-10-11T19:37:04.032Z,30.95
2022-10-11T19:39:32.952Z,30.75
2022-10-11T19:42:01.936Z,29.15
2022-10-11T19:44:37.183Z,30.67
2022-10-11T19:47:09.110Z,30.42
2022-10-11T19:49:37.803Z,28.40
2022-10-11T19:52:06.417Z,35.80
2022-10-11T19:54:35.122Z,38.05
2022-10-11T19:57:03.649Z,37.92
2022-10-11T19:59:33.702Z,46.05
2022-10-11T20:02:02.255Z,44.90
2022-10-11T20:04:51.581Z,37.22
2022-10-11T20:07:19.584Z,35.22
2022-10-11T20:09:48.329Z,35.33
2022-10-11T20:12:17.174Z,41.00
2022-10-11T20:14:47.207Z,40.20
2022-10-11T20:17:16.119Z,33.38
2022-10-11T20:19:44.920Z,35.13
2022-10-11T20:22:13.576Z,36.00
2022-10-11T20:24:42.330Z,38.13
2022-10-11T20:27:10.850Z,37.85
2022-10-11T20:29:39.557Z,38.53
2022-10-11T20:32:09.401Z,35.83
2022-10-11T20:34:39.497Z,36.38
2022-10-11T20:37:08.222Z,39.08
2022-10-11T20:39:36.997Z,43.40
2022-10-11T20:42:05.625Z,40.33
2022-10-11T20:44:34.501Z,41.00
2022-10-11T20:47:04.287Z,37.67
2022-10-11T20:49:34.572Z,42.55
2022-10-11T20:52:03.283Z,39.33
2022-10-11T20:54:34.212Z,45.13
2022-10-11T20:57:03.482Z,42.15
2022-10-11T20:59:32.183Z,43.85
2022-10-11T21:02:00.686Z,41.13
2022-10-11T21:04:29.506Z,44.33
2022-10-11T21:07:00.466Z,44.83
2022-10-11T21:09:29.151Z,45.90
2022-10-11T21:11:57.864Z,46.25
2022-10-11T21:14:26.612Z,54.50
2022-10-11T21:16:55.348Z,52.72
2022-10-11T21:19:24.032Z,55.53
2022-10-11T21:21:53.787Z,52.05
2022-10-11T21:24:24.239Z,56.15
2022-10-11T21:26:56.955Z,59.78
2022-10-11T21:29:28.445Z,56.50
2022-10-11T21:31:56.988Z,55.00
2022-10-11T21:34:25.670Z,53.38
2022-10-11T21:36:54.394Z,55.00
2022-10-11T21:39:24.544Z,52.28
2022-10-11T21:41:53.264Z,54.97
2022-10-11T21:44:21.943Z,55.50
2022-10-11T21:47:07.361Z,50.03
2022-10-11T21:49:36.591Z,44.15
2022-10-11T21:52:06.591Z,52.58
2022-10-11T21:54:36.738Z,46.83
2022-10-11T21:57:05.263Z,46.38
2022-10-11T21:59:33.819Z,45.42
2022-10-11T22:02:02.760Z,36.03
2022-10-11T22:04:31.709Z,38.15
2022-10-11T22:07:00.501Z,42.03
2022-10-11T22:09:29.963Z,41.35
2022-10-11T22:11:59.832Z,37.20
2022-10-11T22:14:31.017Z,36.05
2022-10-11T22:16:59.623Z,36.42
2022-10-11T22:19:28.239Z,36.45
2022-10-11T22:21:56.964Z,35.30
2022-10-11T22:24:25.779Z,32.35
2022-10-11T22:26:54.315Z,32.95
2022-10-11T22:29:24.475Z,34.65
2022-10-11T22:31:53.071Z,32.17
2022-10-11T22:34:21.577Z,31.23
2022-10-11T22:36:50.417Z,31.17
2022-10-11T22:39:18.921Z,35.83
2022-10-11T22:41:47.419Z,37.17
2022-10-11T22:44:16.427Z,36.00
2022-10-11T22:46:46.457Z,33.35
2022-10-11T22:49:15.107Z,42.13
2022-10-11T22:51:44.415Z,36.85
2022-10-11T22:54:13.297Z,33.08
2022-10-11T22:56:41.918Z,34.50
2022-10-11T22:59:10.902Z,33.55
2022-10-11T23:01:39.503Z,33.95
2022-10-11T23:04:09.412Z,34.95
2022-10-11T23:06:38.194Z,34.80
2022-10-11T23:09:07.012Z,28.85
2022-10-11T23:11:35.560Z,28.70
2022-10-11T23:14:04.412Z,27.55
2022-10-11T23:16:32.940Z,29.17
2022-10-11T23:19:01.440Z,29.45
2022-10-11T23:21:31.554Z,24.92
2022-10-11T23:24:00.137Z,28.15
2022-10-11T23:26:28.704Z,26.38
2022-10-11T23:28:57.454Z,26.60
2022-10-11T23:31:26.179Z,27.35
2022-10-11T23:33:54.892Z,30.95
2022-10-11T23:36:26.178Z,29.52
2022-10-11T23:38:58.053Z,29.38
2022-10-11T23:41:29.920Z,25.98
2022-10-11T23:43:59.101Z,22.60
2022-10-11T23:46:28.118Z,26.05
2022-10-11T23:48:56.853Z,25.63
2022-10-11T23:51:25.440Z,26.45
2022-10-11T23:53:55.560Z,27.42
2022-10-11T23:56:24.190Z,25.02
2022-10-11T23:58:52.735Z,23.38
